createdAt,value
2019-06-01T00:00:46.346Z,0.00
2019-06-01T00:01:46.711Z,0.00
2019-06-01T00:02:52.540Z,0.00
2019-06-01T00:03:46.416Z,0.00
2019-06-01T00:04:46.787Z,0.00
2019-06-01T00:05:46.896Z,0.00
2019-06-01T00:06:46.600Z,0.00
2019-06-01T00:07:45.474Z,0.00
2019-06-01T00:08:45.471Z,0.00
2019-06-01T00:09:45.471Z,0.00
2019-06-01T00:10:45.467Z,0.00
2019-06-01T00:11:45.599Z,0.00
2019-06-01T00:12:45.468Z,0.00
2019-06-01T00:13:45.635Z,0.00
2019-06-01T00:14:45.987Z,0.00
2019-06-01T00:15:46.157Z,0.00
2019-06-01T00:16:45.994Z,0.00
2019-06-01T00:17:46.001Z,0.00
2019-06-01T00:18:46.042Z,0.00
2019-06-01T00:19:46.267Z,0.00
2019-06-01T00:20:45.456Z,0.00
2019-06-01T00:21:45.541Z,0.00
2019-06-01T00:22:45.542Z,0.00
2019-06-01T00:23:46.569Z,0.00
2019-06-01T00:24:45.912Z,0.00
2019-06-01T00:25:46.631Z,0.00
2019-06-01T00:26:45.877Z,0.00
2019-06-01T00:27:46.633Z,0.00
2019-06-01T00:28:45.808Z,0.00
2019-06-01T00:29:46.727Z,0.00
2019-06-01T00:30:45.801Z,0.00
2019-06-01T00:31:45.450Z,0.00
2019-06-01T00:32:45.447Z,0.00
2019-06-01T00:33:45.518Z,0.00
2019-06-01T00:34:45.781Z,0.00
2019-06-01T00:35:45.523Z,0.00
2019-06-01T00:36:45.662Z,0.00
2019-06-01T00:37:45.642Z,0.00
2019-06-01T00:38:45.680Z,0.00
2019-06-01T00:39:45.809Z,0.00
2019-06-01T00:40:45.833Z,0.00
2019-06-01T00:41:45.973Z,0.00
2019-06-01T00:42:46.089Z,0.00
2019-06-01T00:43:46.131Z,0.00
2019-06-01T00:44:46.296Z,0.00
2019-06-01T00:45:46.465Z,0.00
2019-06-01T00:46:46.413Z,0.00
2019-06-01T00:47:46.646Z,0.00
2019-06-01T00:48:45.847Z,0.00
2019-06-01T00:49:46.654Z,0.00
2019-06-01T00:50:45.423Z,0.00
2019-06-01T00:51:45.414Z,0.00
2019-06-01T00:52:45.411Z,0.00
2019-06-01T00:53:45.472Z,0.00
2019-06-01T00:54:45.409Z,0.00
2019-06-01T00:55:45.942Z,0.00
2019-06-01T00:56:45.577Z,0.00
2019-06-01T00:57:45.702Z,0.00
2019-06-01T00:58:45.682Z,0.00
2019-06-01T00:59:45.903Z,0.00
2019-06-01T01:00:46.097Z,0.00
2019-06-01T01:01:45.897Z,0.00
2019-06-01T01:02:45.937Z,0.00
2019-06-01T01:03:46.053Z,0.00
2019-06-01T01:04:46.362Z,0.00
2019-06-01T01:05:46.953Z,0.00
2019-06-01T01:06:46.446Z,0.00
2019-06-01T01:07:46.458Z,0.00
2019-06-01T01:08:46.975Z,0.00
2019-06-01T01:09:46.717Z,0.00
2019-06-01T01:10:45.389Z,0.00
2019-06-01T01:11:45.408Z,0.00
2019-06-01T01:12:45.387Z,0.00
2019-06-01T01:13:45.712Z,0.00
2019-06-01T01:14:45.376Z,0.00
2019-06-01T01:15:45.376Z,0.00
2019-06-01T01:16:45.457Z,0.00
2019-06-01T01:17:45.742Z,0.00
2019-06-01T01:18:45.592Z,0.00
2019-06-01T01:19:45.624Z,0.00
2019-06-01T01:20:45.933Z,0.00
2019-06-01T01:21:45.960Z,0.00
2019-06-01T01:22:46.112Z,0.00
2019-06-01T01:23:46.181Z,0.00
2019-06-01T01:24:46.300Z,0.00
2019-06-01T01:25:46.285Z,0.00
2019-06-01T01:26:46.376Z,0.00
2019-06-01T01:27:46.499Z,0.00
2019-06-01T01:28:46.616Z,0.00
2019-06-01T01:29:45.348Z,0.00
2019-06-01T01:31:01.582Z,0.00
2019-06-01T01:31:45.345Z,0.00
2019-06-01T01:32:45.346Z,0.00
2019-06-01T01:33:45.344Z,0.00
2019-06-01T01:34:45.341Z,0.00
2019-06-01T01:35:45.341Z,0.00
2019-06-01T01:36:45.335Z,0.00
2019-06-01T01:37:45.334Z,0.00
2019-06-01T01:38:45.331Z,0.00
2019-06-01T01:39:45.329Z,0.00
2019-06-01T01:40:45.327Z,0.00
2019-06-01T01:41:45.330Z,0.00
2019-06-01T01:42:45.325Z,0.00
2019-06-01T01:43:45.341Z,0.00
2019-06-01T01:44:45.322Z,0.00
2019-06-01T01:45:45.318Z,0.00
2019-06-01T01:46:45.317Z,0.00
2019-06-01T01:47:45.314Z,0.00
2019-06-01T01:48:45.313Z,0.00
2019-06-01T01:49:45.311Z,0.00
2019-06-01T01:50:45.308Z,0.00
2019-06-01T01:51:45.307Z,0.00
2019-06-01T01:52:45.304Z,0.00
2019-06-01T01:53:45.303Z,0.00
2019-06-01T01:54:45.300Z,0.00
2019-06-01T01:55:45.299Z,0.00
2019-06-01T01:56:45.297Z,0.00
2019-06-01T01:57:45.298Z,0.00
2019-06-01T01:58:45.293Z,0.00
2019-06-01T01:59:45.291Z,0.00
2019-06-01T02:00:45.289Z,0.00
2019-06-01T02:01:45.287Z,0.00
2019-06-01T02:02:45.283Z,0.00
2019-06-01T02:03:45.283Z,0.00
2019-06-01T02:04:45.281Z,0.00
2019-06-01T02:05:45.280Z,0.00
2019-06-01T02:06:45.279Z,0.00
2019-06-01T02:07:45.275Z,0.00
2019-06-01T02:08:45.272Z,0.00
2019-06-01T02:09:45.270Z,0.00
2019-06-01T02:10:45.268Z,0.00
2019-06-01T02:11:45.269Z,0.00
2019-06-01T02:12:45.265Z,0.00
2019-06-01T02:13:45.262Z,0.00
2019-06-01T02:14:45.265Z,0.00
2019-06-01T02:15:45.257Z,0.00
2019-06-01T02:16:45.262Z,0.00
2019-06-01T02:17:45.256Z,0.00
2019-06-01T02:18:45.251Z,0.00
2019-06-01T02:19:45.248Z,0.00
2019-06-01T02:20:45.247Z,0.00
2019-06-01T02:21:45.248Z,0.00
2019-06-01T02:22:45.247Z,0.00
2019-06-01T02:23:45.240Z,0.00
2019-06-01T02:24:45.238Z,0.00
2019-06-01T02:25:45.236Z,0.00
2019-06-01T02:26:45.232Z,0.00
2019-06-01T02:27:45.230Z,0.00
2019-06-01T02:28:45.229Z,0.00
2019-06-01T02:29:45.226Z,0.00
2019-06-01T02:30:45.224Z,0.00
2019-06-01T02:31:45.222Z,0.00
2019-06-01T02:32:45.219Z,0.00
2019-06-01T02:33:45.218Z,0.00
2019-06-01T02:34:45.214Z,0.00
2019-06-01T02:35:45.218Z,0.00
2019-06-01T02:36:45.211Z,0.00
2019-06-01T02:37:45.209Z,0.00
2019-06-01T02:38:45.205Z,0.00
2019-06-01T02:39:45.203Z,0.00
2019-06-01T02:40:45.204Z,0.00
2019-06-01T02:41:45.200Z,0.00
2019-06-01T02:42:45.203Z,0.00
2019-06-01T02:43:45.194Z,0.00
2019-06-01T02:44:45.193Z,0.00
2019-06-01T02:45:45.190Z,0.00
2019-06-01T02:46:45.189Z,0.00
2019-06-01T02:47:45.191Z,0.00
2019-06-01T02:48:45.183Z,0.00
2019-06-01T02:49:45.180Z,0.00
2019-06-01T02:50:45.179Z,0.00
2019-06-01T02:51:45.175Z,0.00
2019-06-01T02:52:45.172Z,0.00
2019-06-01T02:53:45.178Z,0.00
2019-06-01T02:54:45.168Z,0.00
2019-06-01T02:55:45.167Z,0.00
2019-06-01T02:56:45.164Z,0.00
2019-06-01T02:57:45.159Z,0.00
2019-06-01T02:58:45.158Z,0.00
2019-06-01T02:59:45.158Z,0.00
2019-06-01T03:00:45.154Z,0.00
2019-06-01T03:01:56.619Z,0.00
2019-06-01T03:02:45.150Z,0.00
2019-06-01T03:03:45.149Z,0.00
2019-06-01T03:04:45.146Z,0.00
2019-06-01T03:05:45.142Z,0.00
2019-06-01T03:06:45.148Z,0.00
2019-06-01T03:07:45.135Z,0.00
2019-06-01T03:08:45.205Z,0.00
2019-06-01T03:09:45.136Z,0.00
2019-06-01T03:10:45.131Z,0.00
2019-06-01T03:11:45.128Z,0.00
2019-06-01T03:12:45.123Z,0.00
2019-06-01T03:13:45.123Z,0.00
2019-06-01T03:14:45.119Z,0.00
2019-06-01T03:15:45.117Z,0.00
2019-06-01T03:16:45.124Z,0.00
2019-06-01T03:17:45.113Z,0.00
2019-06-01T03:18:45.114Z,0.00
2019-06-01T03:19:45.109Z,0.00
2019-06-01T03:20:45.107Z,0.00
2019-06-01T03:21:45.104Z,0.00
2019-06-01T03:22:45.100Z,0.00
2019-06-01T03:23:45.101Z,0.00
2019-06-01T03:24:45.096Z,0.00
2019-06-01T03:25:45.094Z,0.00
2019-06-01T03:26:45.091Z,0.00
2019-06-01T03:27:45.088Z,0.00
2019-06-01T03:28:45.090Z,0.00
2019-06-01T03:29:45.083Z,0.00
2019-06-01T03:30:46.072Z,0.00
2019-06-01T03:31:45.084Z,0.00
2019-06-01T03:32:45.092Z,0.00
2019-06-01T03:33:45.076Z,0.00
2019-06-01T03:34:45.071Z,0.00
2019-06-01T03:35:45.071Z,0.00
2019-06-01T03:36:45.075Z,0.00
2019-06-01T03:37:45.064Z,0.00
2019-06-01T03:38:45.063Z,0.00
2019-06-01T03:39:45.059Z,0.00
2019-06-01T03:40:45.057Z,0.00
2019-06-01T03:41:45.058Z,0.00
2019-06-01T03:42:45.051Z,0.00
2019-06-01T03:43:45.049Z,0.00
2019-06-01T03:44:45.047Z,0.00
2019-06-01T03:45:45.047Z,0.00
2019-06-01T03:46:45.043Z,0.00
2019-06-01T03:47:45.040Z,0.00
2019-06-01T03:48:45.038Z,0.00
2019-06-01T03:49:45.040Z,0.00
2019-06-01T03:50:45.033Z,0.00
2019-06-01T03:51:45.032Z,0.00
2019-06-01T03:52:45.030Z,0.00
2019-06-01T03:53:45.028Z,0.00
2019-06-01T03:54:45.024Z,0.00
2019-06-01T03:55:45.021Z,0.00
2019-06-01T03:56:45.021Z,0.00
2019-06-01T03:57:45.019Z,0.00
2019-06-01T03:58:45.016Z,0.00
2019-06-01T03:59:45.015Z,0.00
2019-06-01T04:00:45.012Z,0.00
2019-06-01T04:01:47.165Z,0.00
2019-06-01T04:02:45.008Z,0.00
2019-06-01T04:03:45.006Z,0.00
2019-06-01T04:04:45.003Z,0.00
2019-06-01T04:05:45.001Z,0.00
2019-06-01T04:06:45.000Z,0.00
2019-06-01T04:07:44.995Z,0.00
2019-06-01T04:08:44.999Z,0.00
2019-06-01T04:09:44.993Z,0.00
2019-06-01T04:10:44.991Z,0.00
2019-06-01T04:11:44.988Z,0.00
2019-06-01T04:12:44.985Z,0.00
2019-06-01T04:13:44.983Z,0.00
2019-06-01T04:14:44.980Z,0.00
2019-06-01T04:15:44.981Z,0.00
2019-06-01T04:16:44.978Z,0.00
2019-06-01T04:17:44.974Z,0.00
2019-06-01T04:18:44.972Z,0.00
2019-06-01T04:19:44.969Z,0.00
2019-06-01T04:20:44.968Z,0.00
2019-06-01T04:21:44.966Z,0.00
2019-06-01T04:22:44.963Z,0.00
2019-06-01T04:23:44.962Z,0.00
2019-06-01T04:24:44.962Z,0.00
2019-06-01T04:25:44.961Z,0.00
2019-06-01T04:26:44.955Z,0.00
2019-06-01T04:27:44.977Z,0.00
2019-06-01T04:28:45.012Z,0.00
2019-06-01T04:29:44.951Z,0.00
2019-06-01T04:30:44.962Z,0.00
2019-06-01T04:31:44.947Z,0.00
2019-06-01T04:32:49.907Z,0.00
2019-06-01T04:33:44.942Z,0.00
2019-06-01T04:34:44.941Z,0.00
2019-06-01T04:35:44.939Z,0.00
2019-06-01T04:36:44.937Z,0.00
2019-06-01T04:37:44.937Z,0.00
2019-06-01T04:38:44.933Z,0.00
2019-06-01T04:39:44.931Z,0.00
2019-06-01T04:40:44.931Z,0.00
2019-06-01T04:41:44.928Z,0.00
2019-06-01T04:42:44.926Z,0.00
2019-06-01T04:43:44.925Z,0.00
2019-06-01T04:44:44.923Z,0.00
2019-06-01T04:45:44.922Z,0.00
2019-06-01T04:46:44.922Z,0.00
2019-06-01T04:47:44.917Z,0.00
2019-06-01T04:48:44.917Z,0.00
2019-06-01T04:49:44.917Z,0.00
2019-06-01T04:50:44.911Z,0.00
2019-06-01T04:51:44.911Z,0.00
2019-06-01T04:52:44.910Z,0.00
2019-06-01T04:53:44.908Z,0.00
2019-06-01T04:54:44.905Z,0.00
2019-06-01T04:55:44.915Z,0.00
2019-06-01T04:56:44.919Z,0.00
2019-06-01T04:57:44.905Z,0.00
2019-06-01T04:58:44.898Z,0.00
2019-06-01T04:59:44.897Z,0.00
2019-06-01T05:00:44.898Z,0.00
2019-06-01T05:01:44.904Z,0.00
2019-06-01T05:02:44.893Z,0.00
2019-06-01T05:03:44.891Z,0.00
2019-06-01T05:04:44.891Z,0.00
2019-06-01T05:05:44.890Z,0.00
2019-06-01T05:06:44.888Z,0.00
2019-06-01T05:07:44.887Z,0.00
2019-06-01T05:08:44.885Z,0.00
2019-06-01T05:09:44.884Z,0.00
2019-06-01T05:10:44.880Z,0.00
2019-06-01T05:11:44.879Z,0.00
2019-06-01T05:12:44.877Z,0.00
2019-06-01T05:13:44.876Z,0.00
2019-06-01T05:14:44.874Z,0.00
2019-06-01T05:15:44.872Z,0.00
2019-06-01T05:16:44.880Z,0.00
2019-06-01T05:17:44.877Z,0.00
2019-06-01T05:18:44.870Z,0.00
2019-06-01T05:19:44.875Z,8.64
2019-06-01T05:20:44.871Z,25.73
2019-06-01T05:21:44.878Z,33.64
2019-06-01T05:22:44.872Z,37.32
2019-06-01T05:23:44.871Z,49.72
2019-06-01T05:24:44.874Z,50.40
2019-06-01T05:25:45.128Z,55.40
2019-06-01T05:26:44.882Z,52.10
2019-06-01T05:27:44.882Z,49.63
2019-06-01T05:28:44.887Z,49.82
2019-06-01T05:29:44.892Z,51.64
2019-06-01T05:30:44.891Z,51.93
2019-06-01T05:31:44.894Z,50.27
2019-06-01T05:32:44.896Z,46.81
2019-06-01T05:33:44.901Z,47.77
2019-06-01T05:34:44.903Z,45.15
2019-06-01T05:35:44.910Z,40.55
2019-06-01T05:36:44.909Z,38.32
2019-06-01T05:37:44.917Z,37.64
2019-06-01T05:38:44.918Z,33.13
2019-06-01T05:39:44.919Z,30.54
2019-06-01T05:40:44.934Z,26.39
2019-06-01T05:41:44.924Z,24.86
2019-06-01T05:42:44.926Z,22.83
2019-06-01T05:43:44.935Z,20.05
2019-06-01T05:44:44.933Z,19.28
2019-06-01T05:45:44.940Z,18.91
2019-06-01T05:46:44.938Z,21.50
2019-06-01T05:47:44.940Z,22.36
2019-06-01T05:48:44.942Z,21.69
2019-06-01T05:49:44.946Z,20.72
2019-06-01T05:50:44.967Z,18.90
2019-06-01T05:51:44.958Z,20.91
2019-06-01T05:52:44.960Z,19.47
2019-06-01T05:53:44.955Z,17.84
2019-06-01T05:54:44.956Z,18.99
2019-06-01T05:55:44.958Z,20.05
2019-06-01T05:56:44.970Z,20.05
2019-06-01T05:57:44.964Z,19.76
2019-06-01T05:58:44.966Z,18.43
2019-06-01T05:59:44.966Z,21.02
2019-06-01T06:00:44.972Z,23.90
2019-06-01T06:01:44.980Z,24.66
2019-06-01T06:02:44.974Z,24.66
2019-06-01T06:03:44.975Z,24.19
2019-06-01T06:04:44.977Z,26.78
2019-06-01T06:05:44.979Z,27.64
2019-06-01T06:06:44.981Z,27.36
2019-06-01T06:07:44.995Z,28.31
2019-06-01T06:08:44.987Z,27.83
2019-06-01T06:09:44.987Z,27.93
2019-06-01T06:10:44.987Z,27.64
2019-06-01T06:11:44.989Z,28.61
2019-06-01T06:12:44.992Z,30.15
2019-06-01T06:13:44.993Z,29.67
2019-06-01T06:14:44.994Z,32.84
2019-06-01T06:15:44.997Z,33.51
2019-06-01T06:16:45.001Z,35.43
2019-06-01T06:17:45.007Z,35.91
2019-06-01T06:18:45.001Z,36.68
2019-06-01T06:19:45.005Z,36.40
2019-06-01T06:20:45.005Z,36.58
2019-06-01T06:21:45.006Z,36.60
2019-06-01T06:22:45.014Z,38.12
2019-06-01T06:23:45.012Z,40.83
2019-06-01T06:24:45.013Z,38.81
2019-06-01T06:25:45.013Z,38.34
2019-06-01T06:26:45.015Z,39.70
2019-06-01T06:27:45.025Z,42.94
2019-06-01T06:28:45.020Z,42.08
2019-06-01T06:29:45.021Z,42.18
2019-06-01T06:30:45.022Z,40.93
2019-06-01T06:31:45.029Z,42.18
2019-06-01T06:32:45.031Z,41.02
2019-06-01T06:33:55.869Z,40.73
2019-06-01T06:34:45.029Z,41.62
2019-06-01T06:35:45.037Z,41.33
2019-06-01T06:36:45.033Z,44.22
2019-06-01T06:37:45.043Z,45.66
2019-06-01T06:38:45.041Z,43.26
2019-06-01T06:39:45.041Z,44.89
2019-06-01T06:40:45.042Z,44.41
2019-06-01T06:41:45.044Z,49.69
2019-06-01T06:42:45.046Z,48.54
2019-06-01T06:43:45.052Z,46.33
2019-06-01T06:44:45.050Z,47.77
2019-06-01T06:45:45.052Z,49.63
2019-06-01T06:46:45.057Z,52.68
2019-06-01T06:47:45.056Z,51.81
2019-06-01T06:48:45.059Z,53.64
2019-06-01T06:49:45.077Z,54.02
2019-06-01T06:50:45.063Z,54.60
2019-06-01T06:51:45.064Z,53.45
2019-06-01T06:52:45.072Z,52.99
2019-06-01T06:53:45.068Z,55.11
2019-06-01T06:54:45.070Z,55.98
2019-06-01T06:55:45.075Z,55.20
2019-06-01T06:56:45.075Z,53.96
2019-06-01T06:57:45.078Z,55.20
2019-06-01T06:58:45.086Z,57.80
2019-06-01T06:59:45.122Z,57.25
2019-06-01T07:00:45.087Z,58.89
2019-06-01T07:01:45.085Z,60.72
2019-06-01T07:02:45.088Z,59.17
2019-06-01T07:03:45.090Z,58.50
2019-06-01T07:04:45.092Z,59.37
2019-06-01T07:05:45.097Z,59.78
2019-06-01T07:06:45.095Z,66.58
2019-06-01T07:07:45.105Z,64.76
2019-06-01T07:08:45.102Z,65.37
2019-06-01T07:09:45.109Z,64.02
2019-06-01T07:10:45.110Z,66.62
2019-06-01T07:11:45.111Z,70.86
2019-06-01T07:12:45.112Z,69.57
2019-06-01T07:13:45.114Z,69.38
2019-06-01T07:14:45.115Z,70.24
2019-06-01T07:15:45.118Z,69.47
2019-06-01T07:16:45.120Z,71.11
2019-06-01T07:17:45.142Z,72.11
2019-06-01T07:18:45.126Z,71.62
2019-06-01T07:19:45.131Z,73.65
2019-06-01T07:20:45.130Z,73.46
2019-06-01T07:21:45.151Z,73.10
2019-06-01T07:22:45.143Z,73.97
2019-06-01T07:23:45.138Z,75.13
2019-06-01T07:24:45.147Z,75.90
2019-06-01T07:25:45.144Z,75.99
2019-06-01T07:26:45.163Z,75.93
2019-06-01T07:27:45.161Z,78.92
2019-06-01T07:28:45.162Z,79.08
2019-06-01T07:29:45.163Z,77.58
2019-06-01T07:30:50.336Z,79.21
2019-06-01T07:31:45.162Z,81.81
2019-06-01T07:32:45.165Z,81.04
2019-06-01T07:33:45.169Z,83.40
2019-06-01T07:34:45.172Z,85.27
2019-06-01T07:35:45.175Z,86.57
2019-06-01T07:36:45.243Z,87.19
2019-06-01T07:37:45.189Z,88.29
2019-06-01T07:38:45.198Z,88.39
2019-06-01T07:39:45.198Z,87.43
2019-06-01T07:40:45.203Z,87.08
2019-06-01T07:41:45.224Z,86.60
2019-06-01T07:42:45.216Z,85.93
2019-06-01T07:43:45.221Z,86.21
2019-06-01T07:44:45.232Z,85.05
2019-06-01T07:45:45.236Z,84.84
2019-06-01T07:46:45.246Z,84.17
2019-06-01T07:47:45.251Z,83.69
2019-06-01T07:48:45.260Z,83.69
2019-06-01T07:49:45.268Z,82.62
2019-06-01T07:50:45.275Z,83.11
2019-06-01T07:51:45.284Z,82.33
2019-06-01T07:52:45.293Z,82.04
2019-06-01T07:53:45.306Z,82.37
2019-06-01T07:54:45.312Z,81.21
2019-06-01T07:55:45.328Z,79.99
2019-06-01T07:56:45.334Z,78.13
2019-06-01T07:57:45.342Z,77.06
2019-06-01T07:58:45.352Z,75.61
2019-06-01T07:59:45.361Z,74.35
2019-06-01T08:00:45.373Z,74.64
2019-06-01T08:01:45.387Z,75.38
2019-06-01T08:02:45.394Z,74.45
2019-06-01T08:03:45.406Z,73.38
2019-06-01T08:04:53.798Z,74.32
2019-06-01T08:05:45.427Z,73.31
2019-06-01T08:06:48.147Z,74.41
2019-06-01T08:07:45.455Z,73.09
2019-06-01T08:08:45.462Z,73.54
2019-06-01T08:09:48.704Z,74.47
2019-06-01T08:10:45.489Z,76.66
2019-06-01T08:11:45.498Z,78.94
2019-06-01T08:12:45.518Z,79.00
2019-06-01T08:13:45.527Z,81.04
2019-06-01T08:14:45.534Z,81.62
2019-06-01T08:15:45.544Z,81.87
2019-06-01T08:16:45.558Z,81.75
2019-06-01T08:17:45.570Z,81.27
2019-06-01T08:18:45.580Z,79.76
2019-06-01T08:19:45.591Z,78.99
2019-06-01T08:20:45.602Z,79.66
2019-06-01T08:21:45.615Z,79.95
2019-06-01T08:22:45.625Z,78.79
2019-06-01T08:23:45.637Z,77.76
2019-06-01T08:24:45.650Z,77.57
2019-06-01T08:25:45.659Z,76.15
2019-06-01T08:26:45.672Z,74.38
2019-06-01T08:27:45.683Z,75.50
2019-06-01T08:28:45.695Z,76.66
2019-06-01T08:29:45.707Z,78.31
2019-06-01T08:30:45.726Z,78.50
2019-06-01T08:31:45.731Z,76.66
2019-06-01T08:32:45.754Z,76.79
2019-06-01T08:33:45.754Z,76.45
2019-06-01T08:34:45.766Z,75.61
2019-06-01T08:35:45.781Z,73.09
2019-06-01T08:36:45.792Z,72.38
2019-06-01T08:37:45.802Z,73.25
2019-06-01T08:38:45.815Z,73.15
2019-06-01T08:39:45.827Z,74.45
2019-06-01T08:40:45.838Z,72.16
2019-06-01T08:41:45.852Z,70.83
2019-06-01T08:42:45.861Z,68.79
2019-06-01T08:43:45.874Z,68.54
2019-06-01T08:44:45.886Z,66.99
2019-06-01T08:45:45.900Z,65.95
2019-06-01T08:46:45.910Z,66.82
2019-06-01T08:47:45.923Z,68.12
2019-06-01T08:48:45.936Z,69.31
2019-06-01T08:49:45.951Z,69.34
2019-06-01T08:50:46.323Z,68.15
2019-06-01T08:51:45.974Z,68.21
2019-06-01T08:52:45.986Z,67.83
2019-06-01T08:53:46.003Z,68.21
2019-06-01T08:54:46.011Z,67.66
2019-06-01T08:55:46.026Z,68.57
2019-06-01T08:56:46.039Z,68.99
2019-06-01T08:57:46.054Z,67.31
2019-06-01T08:58:46.066Z,69.12
2019-06-01T08:59:46.076Z,70.28
2019-06-01T09:00:46.092Z,70.41
2019-06-01T09:01:46.104Z,69.02
2019-06-01T09:02:46.117Z,67.14
2019-06-01T09:03:47.016Z,66.30
2019-06-01T09:04:46.146Z,65.17
2019-06-01T09:05:46.155Z,64.62
2019-06-01T09:06:46.170Z,62.77
2019-06-01T09:07:46.189Z,63.52
2019-06-01T09:08:46.200Z,64.01
2019-06-01T09:09:46.212Z,63.49
2019-06-01T09:10:46.227Z,64.40
2019-06-01T09:11:46.238Z,64.11
2019-06-01T09:12:46.253Z,64.26
2019-06-01T09:13:46.266Z,64.75
2019-06-01T09:14:46.278Z,65.24
2019-06-01T09:15:46.293Z,65.30
2019-06-01T09:16:46.308Z,63.55
2019-06-01T09:17:46.321Z,63.04
2019-06-01T09:18:46.344Z,63.52
2019-06-01T09:19:46.348Z,64.30
2019-06-01T09:20:46.363Z,63.42
2019-06-01T09:21:46.378Z,63.98
2019-06-01T09:22:48.212Z,63.91
2019-06-01T09:23:46.405Z,63.88
2019-06-01T09:24:46.422Z,64.26
2019-06-01T09:25:46.435Z,64.30
2019-06-01T09:26:46.567Z,64.11
2019-06-01T09:27:46.460Z,64.01
2019-06-01T09:28:46.474Z,63.23
2019-06-01T09:29:46.490Z,63.36
2019-06-01T09:30:46.503Z,64.07
2019-06-01T09:31:46.520Z,63.71
2019-06-01T09:32:46.532Z,63.36
2019-06-01T09:33:46.545Z,62.55
2019-06-01T09:34:46.559Z,62.87
2019-06-01T09:35:53.998Z,62.58
2019-06-01T09:36:46.586Z,62.48
2019-06-01T09:37:46.604Z,62.68
2019-06-01T09:38:46.618Z,62.03
2019-06-01T09:39:46.629Z,61.51
2019-06-01T09:40:46.652Z,61.57
2019-06-01T09:41:46.657Z,60.60
2019-06-01T09:42:46.673Z,60.28
2019-06-01T09:43:46.686Z,61.22
2019-06-01T09:44:46.702Z,62.48
2019-06-01T09:45:46.714Z,62.58
2019-06-01T09:46:46.728Z,62.23
2019-06-01T09:47:47.194Z,60.89
2019-06-01T09:48:46.758Z,61.61
2019-06-01T09:49:46.771Z,61.71
2019-06-01T09:50:46.788Z,62.19
2019-06-01T09:51:46.799Z,62.26
2019-06-01T09:52:46.818Z,59.66
2019-06-01T09:53:46.831Z,58.32
2019-06-01T09:54:46.844Z,58.51
2019-06-01T09:55:46.859Z,58.46
2019-06-01T09:56:46.871Z,58.62
2019-06-01T09:57:46.887Z,59.43
2019-06-01T09:58:46.904Z,59.63
2019-06-01T09:59:46.916Z,59.46
2019-06-01T10:00:46.932Z,59.07
2019-06-01T10:01:47.276Z,58.17
2019-06-01T10:02:46.960Z,59.85
2019-06-01T10:03:46.973Z,60.05
2019-06-01T10:04:46.989Z,59.72
2019-06-01T10:06:00.912Z,60.31
2019-06-01T10:06:47.017Z,62.13
2019-06-01T10:07:47.034Z,62.68
2019-06-01T10:08:47.051Z,62.68
2019-06-01T10:09:47.062Z,62.51
2019-06-01T10:10:47.077Z,62.06
2019-06-01T10:11:47.090Z,60.63
2019-06-01T10:12:47.154Z,59.52
2019-06-01T10:13:47.120Z,58.61
2019-06-01T10:14:47.134Z,60.14
2019-06-01T10:15:47.148Z,60.08
2019-06-01T10:16:47.162Z,58.25
2019-06-01T10:17:47.178Z,58.32
2019-06-01T10:18:47.192Z,58.71
2019-06-01T10:19:47.205Z,58.22
2019-06-01T10:20:47.220Z,58.87
2019-06-01T10:21:47.234Z,59.49
2019-06-01T10:22:47.250Z,58.71
2019-06-01T10:23:49.738Z,59.00
2019-06-01T10:24:47.281Z,59.27
2019-06-01T10:25:47.294Z,60.31
2019-06-01T10:26:47.308Z,60.79
2019-06-01T10:27:47.322Z,59.85
2019-06-01T10:28:47.337Z,59.72
2019-06-01T10:29:47.350Z,60.11
2019-06-01T10:30:47.364Z,60.17
2019-06-01T10:31:47.378Z,58.92
2019-06-01T10:32:47.461Z,59.99
2019-06-01T10:33:50.616Z,58.46
2019-06-01T10:34:47.422Z,58.43
2019-06-01T10:35:47.436Z,59.31
2019-06-01T10:36:47.449Z,59.50
2019-06-01T10:37:47.463Z,59.63
2019-06-01T10:38:47.479Z,58.36
2019-06-01T10:39:47.491Z,58.23
2019-06-01T10:40:47.517Z,59.95
2019-06-01T10:41:47.521Z,60.77
2019-06-01T10:42:47.536Z,60.02
2019-06-01T10:43:47.549Z,59.05
2019-06-01T10:44:47.563Z,58.78
2019-06-01T10:45:47.582Z,58.20
2019-06-01T10:46:47.589Z,57.59
2019-06-01T10:47:47.604Z,57.59
2019-06-01T10:48:47.616Z,57.71
2019-06-01T10:49:47.632Z,57.71
2019-06-01T10:50:47.643Z,58.56
2019-06-01T10:51:47.660Z,58.95
2019-06-01T10:52:47.674Z,58.07
2019-06-01T10:53:47.686Z,58.17
2019-06-01T10:54:47.698Z,57.51
2019-06-01T10:55:47.714Z,58.49
2019-06-01T10:56:47.726Z,58.20
2019-06-01T10:57:47.741Z,58.22
2019-06-01T10:58:58.991Z,57.78
2019-06-01T10:59:47.767Z,57.46
2019-06-01T11:00:51.015Z,58.72
2019-06-01T11:01:47.794Z,58.92
2019-06-01T11:02:47.808Z,59.79
2019-06-01T11:03:47.819Z,59.99
2019-06-01T11:04:47.836Z,60.74
2019-06-01T11:05:47.849Z,60.64
2019-06-01T11:06:48.836Z,60.67
2019-06-01T11:07:47.876Z,60.21
2019-06-01T11:08:47.884Z,59.63
2019-06-01T11:09:47.898Z,58.65
2019-06-01T11:10:47.910Z,59.53
2019-06-01T11:11:47.922Z,59.11
2019-06-01T11:12:47.937Z,59.33
2019-06-01T11:13:47.954Z,58.79
2019-06-01T11:14:47.959Z,59.95
2019-06-01T11:15:47.974Z,60.51
2019-06-01T11:16:54.825Z,60.71
2019-06-01T11:17:48.003Z,60.74
2019-06-01T11:18:48.158Z,59.83
2019-06-01T11:19:48.020Z,59.92
2019-06-01T11:20:48.033Z,60.02
2019-06-01T11:21:48.046Z,59.83
2019-06-01T11:22:48.056Z,60.71
2019-06-01T11:23:48.066Z,59.80
2019-06-01T11:24:48.086Z,61.16
2019-06-01T11:25:48.088Z,61.65
2019-06-01T11:26:48.100Z,62.13
2019-06-01T11:27:48.112Z,62.04
2019-06-01T11:28:48.124Z,62.78
2019-06-01T11:29:51.446Z,63.95
2019-06-01T11:30:48.141Z,64.33
2019-06-01T11:31:48.152Z,64.53
2019-06-01T11:32:48.162Z,64.82
2019-06-01T11:33:48.173Z,65.30
2019-06-01T11:34:48.184Z,65.53
2019-06-01T11:35:48.191Z,64.33
2019-06-01T11:37:04.506Z,64.82
2019-06-01T11:37:48.212Z,64.33
2019-06-01T11:38:48.262Z,63.85
2019-06-01T11:39:48.231Z,64.72
2019-06-01T11:40:48.242Z,65.40
2019-06-01T11:41:48.282Z,64.72
2019-06-01T11:42:48.265Z,64.82
2019-06-01T11:43:48.270Z,65.53
2019-06-01T11:44:48.279Z,65.43
2019-06-01T11:45:48.288Z,63.85
2019-06-01T11:46:48.293Z,64.33
2019-06-01T11:47:48.304Z,65.89
2019-06-01T11:48:48.317Z,65.05
2019-06-01T11:49:48.321Z,64.53
2019-06-01T11:50:48.339Z,64.85
2019-06-01T11:51:48.340Z,64.85
2019-06-01T11:52:48.349Z,64.36
2019-06-01T11:53:48.360Z,63.95
2019-06-01T11:54:48.364Z,64.14
2019-06-01T11:55:48.374Z,64.46
2019-06-01T11:56:48.409Z,63.49
2019-06-01T11:57:48.402Z,63.39
2019-06-01T11:58:48.401Z,63.10
2019-06-01T11:59:48.432Z,63.01
2019-06-01T12:00:48.415Z,63.10
2019-06-01T12:01:48.425Z,61.94
2019-06-01T12:02:48.432Z,62.71
2019-06-01T12:03:48.442Z,62.23
2019-06-01T12:04:48.449Z,62.91
2019-06-01T12:05:48.496Z,63.01
2019-06-01T12:06:48.464Z,63.59
2019-06-01T12:07:48.478Z,63.10
2019-06-01T12:08:48.518Z,62.32
2019-06-01T12:09:48.493Z,62.68
2019-06-01T12:10:48.498Z,63.46
2019-06-01T12:11:48.508Z,63.36
2019-06-01T12:12:48.514Z,63.20
2019-06-01T12:13:48.524Z,62.52
2019-06-01T12:14:48.529Z,62.81
2019-06-01T12:15:48.540Z,62.04
2019-06-01T12:16:48.547Z,61.45
2019-06-01T12:17:48.553Z,61.00
2019-06-01T12:18:48.562Z,61.84
2019-06-01T12:19:48.569Z,61.13
2019-06-01T12:20:48.604Z,60.94
2019-06-01T12:21:48.586Z,61.45
2019-06-01T12:22:48.592Z,61.07
2019-06-01T12:23:48.606Z,59.83
2019-06-01T12:24:48.607Z,60.09
2019-06-01T12:25:48.618Z,61.19
2019-06-01T12:26:48.623Z,60.80
2019-06-01T12:27:48.632Z,60.51
2019-06-01T12:28:48.639Z,60.05
2019-06-01T12:29:52.418Z,58.69
2019-06-01T12:30:48.655Z,58.76
2019-06-01T12:31:48.660Z,59.15
2019-06-01T12:32:48.866Z,59.54
2019-06-01T12:33:48.796Z,59.83
2019-06-01T12:34:48.684Z,60.71
2019-06-01T12:35:48.695Z,59.38
2019-06-01T12:36:48.698Z,60.09
2019-06-01T12:38:04.462Z,60.58
2019-06-01T12:38:48.712Z,61.58
2019-06-01T12:39:52.227Z,62.07
2019-06-01T12:40:48.729Z,60.74
2019-06-01T12:41:48.736Z,60.83
2019-06-01T12:42:48.743Z,60.93
2019-06-01T12:43:48.751Z,59.47
2019-06-01T12:44:48.759Z,59.18
2019-06-01T12:46:04.841Z,59.95
2019-06-01T12:46:48.994Z,59.89
2019-06-01T12:47:53.603Z,59.57
2019-06-01T12:48:48.787Z,59.95
2019-06-01T12:49:48.795Z,59.95
2019-06-01T12:50:50.840Z,59.41
2019-06-01T12:51:49.032Z,57.36
2019-06-01T12:52:48.822Z,57.75
2019-06-01T12:53:48.825Z,57.36
2019-06-01T12:54:49.040Z,57.43
2019-06-01T12:55:48.927Z,58.01
2019-06-01T12:56:49.811Z,57.43
2019-06-01T12:57:49.273Z,57.23
2019-06-01T12:58:48.861Z,57.82
2019-06-01T12:59:48.869Z,57.72
2019-06-01T13:00:48.877Z,57.82
2019-06-01T13:01:49.281Z,57.62
2019-06-01T13:02:56.340Z,58.21
2019-06-01T13:03:49.649Z,58.21